Time;durP1;ratioP1;P1;durP2;ratioP2;P2;SDS_P1;SDS_P2;PMS_P1;PMS_P2;Temp;Humidity;BMP_temperature;BMP_pressure;BME280_temperature;BME280_humidity;BME280_pressure;Samples;Min_cycle;Max_cycle;Signal;HPM_P1;HPM_P2
2022/09/25 00:00:43;;;;;;;7.20;3.42;;;;;;;;;;1908387;75;21023;-62
2022/09/25 00:03:11;;;;;;;7.33;3.35;;;;;;;;;;1908418;75;21035;-61
2022/09/25 00:05:40;;;;;;;7.33;3.70;;;;;;;;;;1908300;74;21068;-62
2022/09/25 00:08:08;;;;;;;5.05;3.22;;;;;;;;;;1908306;75;21032;-62
2022/09/25 00:10:37;;;;;;;10.78;4.28;;;;;;;;;;1908155;75;21194;-62
2022/09/25 00:13:04;;;;;;;9.63;3.40;;;;;;;;;;1904487;75;21015;-62
2022/09/25 00:15:32;;;;;;;11.43;4.87;;;;;;;;;;1908266;75;21087;-61
2022/09/25 00:17:59;;;;;;;8.20;3.60;;;;;;;;;;1908377;75;21035;-62
2022/09/25 00:20:27;;;;;;;7.35;3.67;;;;;;;;;;1908305;75;21036;-62
2022/09/25 00:22:55;;;;;;;8.35;3.12;;;;;;;;;;1908161;74;21125;-62
2022/09/25 00:25:26;;;;;;;11.08;2.87;;;;;;;;;;1908411;75;21125;-62
2022/09/25 00:27:53;;;;;;;5.12;2.25;;;;;;;;;;1908139;75;21809;-62
2022/09/25 00:30:20;;;;;;;4.65;2.67;;;;;;;;;;1908371;75;21109;-62
2022/09/25 00:32:48;;;;;;;10.03;2.60;;;;;;;;;;1908437;75;21003;-62
2022/09/25 00:35:15;;;;;;;6.42;2.75;;;;;;;;;;1908512;75;21052;-62
2022/09/25 00:37:43;;;;;;;8.38;2.58;;;;;;;;;;1908174;75;21056;-62
2022/09/25 00:40:10;;;;;;;5.25;2.20;;;;;;;;;;1908401;75;21031;-62
2022/09/25 00:42:39;;;;;;;6.53;2.60;;;;;;;;;;1908306;75;21032;-62
2022/09/25 00:45:07;;;;;;;14.00;2.75;;;;;;;;;;1908294;74;21036;-62
2022/09/25 00:47:42;;;;;;;5.92;2.05;;;;;;;;;;1908378;75;21061;-62
2022/09/25 00:50:17;;;;;;;8.73;2.25;;;;;;;;;;1906993;74;21141;-62
2022/09/25 00:52:45;;;;;;;8.18;2.55;;;;;;;;;;1902018;75;21043;-62
2022/09/25 00:55:13;;;;;;;6.83;2.65;;;;;;;;;;1902265;75;21517;-62
2022/09/25 01:00:30;;;;;;;12.43;3.65;;;;;;;;;;1976925;72;21097;-64
2022/09/25 01:02:57;;;;;;;6.97;2.92;;;;;;;;;;1977081;72;20995;-62
2022/09/25 01:05:26;;;;;;;10.50;3.10;;;;;;;;;;1977061;72;21089;-62
2022/09/25 01:07:56;;;;;;;5.12;2.60;;;;;;;;;;1976499;72;21141;-62
2022/09/25 01:10:23;;;;;;;5.80;2.83;;;;;;;;;;1977084;72;21136;-63
2022/09/25 01:12:53;;;;;;;4.62;2.77;;;;;;;;;;1977197;72;21040;-62
2022/09/25 01:15:22;;;;;;;5.55;2.15;;;;;;;;;;1977209;72;21446;-62
2022/09/25 01:17:52;;;;;;;7.03;2.40;;;;;;;;;;1977283;72;21089;-62
2022/09/25 01:20:39;;;;;;;12.35;2.85;;;;;;;;;;1977149;72;20988;-62
2022/09/25 01:23:27;;;;;;;14.78;2.92;;;;;;;;;;1975694;72;21097;-62
2022/09/25 01:25:59;;;;;;;5.42;2.12;;;;;;;;;;1977274;72;20996;-62
2022/09/25 01:28:46;;;;;;;8.85;2.72;;;;;;;;;;1977158;72;21035;-62
2022/09/25 01:31:21;;;;;;;6.03;2.27;;;;;;;;;;1977180;72;21059;-62
2022/09/25 01:33:50;;;;;;;5.30;2.60;;;;;;;;;;1976200;72;21024;-62
2022/09/25 01:36:28;;;;;;;5.55;3.10;;;;;;;;;;1977140;72;21023;-62
2022/09/25 01:39:16;;;;;;;5.50;2.80;;;;;;;;;;1977154;72;21052;-62
2022/09/25 01:41:46;;;;;;;6.65;2.90;;;;;;;;;;1976804;72;21582;-62
2022/09/25 01:44:18;;;;;;;5.03;2.95;;;;;;;;;;1977214;72;21063;-62
2022/09/25 01:46:49;;;;;;;8.48;4.35;;;;;;;;;;1974168;72;21048;-62
2022/09/25 01:49:31;;;;;;;8.88;4.60;;;;;;;;;;1977252;72;21022;-62
2022/09/25 01:52:00;;;;;;;10.05;5.15;;;;;;;;;;1977146;72;21426;-62
2022/09/25 01:54:29;;;;;;;7.15;4.80;;;;;;;;;;1977206;72;21143;-62
2022/09/25 01:57:01;;;;;;;10.05;5.65;;;;;;;;;;1977235;72;21082;-62
2022/09/25 01:59:47;;;;;;;14.23;6.85;;;;;;;;;;1981533;72;21555;-62
2022/09/25 02:02:17;;;;;;;13.13;8.15;;;;;;;;;;1987344;72;21026;-62
2022/09/25 02:04:47;;;;;;;7.33;5.37;;;;;;;;;;1987537;72;21019;-62
2022/09/25 02:07:16;;;;;;;7.35;4.47;;;;;;;;;;1987253;72;21055;-62
2022/09/25 02:09:51;;;;;;;5.28;2.55;;;;;;;;;;1987135;72;21079;-62
2022/09/25 02:12:20;;;;;;;5.42;2.83;;;;;;;;;;1987311;72;21109;-62
2022/09/25 02:14:58;;;;;;;9.60;4.10;;;;;;;;;;1987100;72;21093;-62
2022/09/25 02:20:31;;;;;;;10.00;3.47;;;;;;;;;;1987478;72;21027;-62
2022/09/25 02:23:00;;;;;;;5.10;2.85;;;;;;;;;;1987637;72;21019;-62
2022/09/25 02:25:29;;;;;;;8.38;3.27;;;;;;;;;;1985949;71;21536;-71
2022/09/25 02:27:57;;;;;;;10.25;6.53;;;;;;;;;;1970698;72;20999;-69
2022/09/25 02:30:25;;;;;;;11.10;7.20;;;;;;;;;;1963811;73;21104;-69
2022/09/25 02:32:56;;;;;;;11.40;6.90;;;;;;;;;;1979516;72;20995;-71
2022/09/25 02:35:22;;;;;;;7.53;5.42;;;;;;;;;;1987197;72;21539;-66
2022/09/25 02:37:50;;;;;;;12.33;6.83;;;;;;;;;;1987385;72;21038;-72
2022/09/25 02:40:19;;;;;;;5.37;2.67;;;;;;;;;;1987438;72;21055;-70
2022/09/25 02:42:54;;;;;;;8.40;2.77;;;;;;;;;;1987434;72;21017;-68
2022/09/25 02:45:38;;;;;;;7.53;3.42;;;;;;;;;;1992793;72;20986;-67
2022/09/25 02:48:10;;;;;;;6.80;3.60;;;;;;;;;;1994291;72;21006;-66
2022/09/25 02:50:56;;;;;;;8.68;3.55;;;;;;;;;;1994347;72;21014;-69
2022/09/25 02:53:25;;;;;;;8.73;4.22;;;;;;;;;;1994374;72;21096;-70
2022/09/25 02:55:54;;;;;;;11.73;3.67;;;;;;;;;;1992519;72;21055;-68
2022/09/25 02:58:25;;;;;;;8.48;3.20;;;;;;;;;;1993889;72;21087;-66
2022/09/25 03:00:55;;;;;;;7.80;3.37;;;;;;;;;;1983017;71;21011;-66
2022/09/25 03:03:24;;;;;;;3.95;2.40;;;;;;;;;;1981191;72;20994;-66
2022/09/25 03:05:53;;;;;;;7.85;2.98;;;;;;;;;;1981168;72;21622;-65
2022/09/25 03:08:37;;;;;;;6.10;3.40;;;;;;;;;;1981187;72;21034;-70
2022/09/25 03:11:06;;;;;;;8.98;4.25;;;;;;;;;;1981171;72;21042;-68
2022/09/25 03:13:34;;;;;;;8.58;4.50;;;;;;;;;;1981378;72;21082;-64
2022/09/25 03:16:06;;;;;;;5.20;2.02;;;;;;;;;;1980984;72;21022;-68
2022/09/25 03:18:34;;;;;;;5.33;3.12;;;;;;;;;;1981281;72;21058;-66
2022/09/25 03:21:03;;;;;;;12.75;3.27;;;;;;;;;;1979749;72;21036;-64
2022/09/25 03:23:31;;;;;;;8.50;3.83;;;;;;;;;;1977776;72;21015;-63
2022/09/25 03:25:59;;;;;;;7.95;4.17;;;;;;;;;;1977936;72;21089;-61
2022/09/25 03:28:26;;;;;;;11.45;5.25;;;;;;;;;;1977790;72;21016;-61
2022/09/25 03:30:58;;;;;;;8.23;3.35;;;;;;;;;;1977822;72;21059;-61
2022/09/25 03:33:26;;;;;;;7.55;2.87;;;;;;;;;;1977794;72;21106;-61
2022/09/25 03:36:05;;;;;;;7.47;3.15;;;;;;;;;;1977995;72;21199;-61
2022/09/25 03:38:33;;;;;;;10.43;3.92;;;;;;;;;;1977795;72;21466;-61
2022/09/25 03:41:01;;;;;;;12.35;4.95;;;;;;;;;;1977644;72;21011;-62
2022/09/25 03:43:31;;;;;;;8.55;3.00;;;;;;;;;;1977774;72;21055;-61
2022/09/25 03:45:58;;;;;;;8.90;3.90;;;;;;;;;;1977838;72;21020;-62
2022/09/25 03:48:25;;;;;;;11.20;3.70;;;;;;;;;;1977860;72;21019;-61
2022/09/25 03:50:55;;;;;;;9.18;3.62;;;;;;;;;;1977882;72;21019;-61
2022/09/25 03:53:24;;;;;;;11.20;5.37;;;;;;;;;;1977711;72;21012;-64
2022/09/25 03:55:52;;;;;;;13.05;7.08;;;;;;;;;;1977715;72;21132;-62
2022/09/25 03:58:20;;;;;;;11.83;7.00;;;;;;;;;;1977777;72;20995;-61
2022/09/25 04:00:48;;;;;;;12.80;7.30;;;;;;;;;;1977283;72;21048;-61
2022/09/25 04:03:16;;;;;;;6.90;4.62;;;;;;;;;;1977106;72;21020;-61
2022/09/25 04:05:45;;;;;;;7.42;3.02;;;;;;;;;;1977087;72;21116;-61
2022/09/25 04:08:12;;;;;;;8.38;3.72;;;;;;;;;;1977023;72;21016;-61
2022/09/25 04:10:40;;;;;;;7.47;2.75;;;;;;;;;;1977226;72;21016;-61
2022/09/25 04:13:28;;;;;;;8.68;2.60;;;;;;;;;;1977232;72;21086;-62
2022/09/25 04:15:56;;;;;;;11.12;3.22;;;;;;;;;;1745609;82;21593;-61
2022/09/25 04:18:24;;;;;;;6.65;2.02;;;;;;;;;;1819177;79;21087;-61
2022/09/25 04:20:52;;;;;;;3.50;1.75;;;;;;;;;;1819164;79;21068;-62
2022/09/25 04:23:19;;;;;;;3.60;1.95;;;;;;;;;;1819166;79;21142;-61
2022/09/25 04:25:48;;;;;;;4.60;1.95;;;;;;;;;;1819296;79;21052;-61
2022/09/25 04:28:15;;;;;;;2.65;1.85;;;;;;;;;;1819225;79;21056;-61
2022/09/25 04:30:43;;;;;;;4.12;2.10;;;;;;;;;;1819209;79;21060;-61
2022/09/25 04:35:56;;;;;;;11.48;3.52;;;;;;;;;;1819234;79;21124;-64
2022/09/25 04:38:24;;;;;;;5.50;2.80;;;;;;;;;;1819135;79;21131;-64
2022/09/25 04:40:51;;;;;;;5.45;2.98;;;;;;;;;;1819166;78;21127;-64
2022/09/25 04:43:26;;;;;;;7.47;3.25;;;;;;;;;;1819156;79;21087;-63
2022/09/25 04:45:55;;;;;;;5.10;2.72;;;;;;;;;;1817964;78;21924;-64
2022/09/25 04:48:21;;;;;;;8.30;3.00;;;;;;;;;;1818309;79;21112;-64
2022/09/25 04:50:50;;;;;;;7.50;3.08;;;;;;;;;;1819207;79;21526;-64
2022/09/25 04:53:21;;;;;;;5.55;3.12;;;;;;;;;;1819116;78;21057;-63
2022/09/25 04:55:54;;;;;;;5.58;2.50;;;;;;;;;;1819102;79;21162;-64
2022/09/25 04:58:18;;;;;;;4.15;2.47;;;;;;;;;;1818042;79;21605;-63
2022/09/25 05:00:46;;;;;;;5.50;1.92;;;;;;;;;;1819392;78;21076;-62
2022/09/25 05:03:14;;;;;;;4.28;1.77;;;;;;;;;;1819182;79;21056;-63
2022/09/25 05:05:41;;;;;;;7.22;1.67;;;;;;;;;;1819162;79;21060;-63
2022/09/25 05:08:10;;;;;;;4.22;1.45;;;;;;;;;;1819150;79;21131;-63
2022/09/25 05:10:40;;;;;;;4.05;1.42;;;;;;;;;;1819083;79;21064;-64
2022/09/25 05:13:10;;;;;;;4.40;1.67;;;;;;;;;;1819378;78;21092;-62
2022/09/25 05:15:37;;;;;;;3.87;1.60;;;;;;;;;;1821430;79;21171;-62
2022/09/25 05:18:09;;;;;;;10.30;2.25;;;;;;;;;;1822099;79;21127;-62
2022/09/25 05:20:40;;;;;;;1.72;1.15;;;;;;;;;;1815449;79;21147;-62
2022/09/25 05:23:08;;;;;;;4.50;2.05;;;;;;;;;;1822005;79;21057;-62
2022/09/25 05:25:37;;;;;;;3.10;1.52;;;;;;;;;;1822025;78;21085;-62
2022/09/25 05:28:24;;;;;;;3.30;1.22;;;;;;;;;;1862008;75;21143;-62
2022/09/25 05:30:51;;;;;;;1.47;1.05;;;;;;;;;;1878936;75;21057;-62
2022/09/25 05:33:19;;;;;;;3.10;1.00;;;;;;;;;;1862018;77;21073;-62
2022/09/25 05:35:47;;;;;;;2.45;1.05;;;;;;;;;;1861802;77;21050;-62
2022/09/25 05:38:15;;;;;;;1.20;0.70;;;;;;;;;;1861876;75;21018;-62
2022/09/25 05:40:43;;;;;;;2.50;1.07;;;;;;;;;;1861838;76;21061;-62
2022/09/25 05:43:11;;;;;;;3.15;1.15;;;;;;;;;;1862006;76;21061;-62
2022/09/25 05:45:41;;;;;;;3.02;1.62;;;;;;;;;;1861939;76;21113;-63
2022/09/25 05:48:08;;;;;;;2.72;1.20;;;;;;;;;;1861907;77;21093;-63
2022/09/25 05:50:36;;;;;;;3.20;1.42;;;;;;;;;;1861895;77;21103;-62
2022/09/25 05:53:05;;;;;;;2.27;1.02;;;;;;;;;;1861941;77;21070;-63
2022/09/25 05:55:32;;;;;;;3.45;1.05;;;;;;;;;;1861870;77;21124;-63
2022/09/25 05:58:01;;;;;;;3.72;0.93;;;;;;;;;;1861895;77;21477;-62
2022/09/25 06:00:31;;;;;;;2.00;0.90;;;;;;;;;;1861724;77;21109;-62
2022/09/25 06:02:59;;;;;;;2.27;1.10;;;;;;;;;;1861980;76;21089;-63
2022/09/25 06:05:26;;;;;;;3.33;1.00;;;;;;;;;;1861832;77;21042;-64
2022/09/25 06:07:55;;;;;;;4.58;1.05;;;;;;;;;;1861937;77;21010;-63
2022/09/25 06:10:24;;;;;;;2.08;1.10;;;;;;;;;;1861887;77;21106;-63
2022/09/25 06:12:54;;;;;;;1.52;0.90;;;;;;;;;;1861927;77;21484;-63
2022/09/25 06:15:22;;;;;;;2.65;0.82;;;;;;;;;;1861853;75;21680;-63
2022/09/25 06:17:50;;;;;;;2.47;1.00;;;;;;;;;;1862071;77;21499;-64
2022/09/25 06:20:19;;;;;;;2.52;0.88;;;;;;;;;;1862009;77;21030;-63
2022/09/25 06:22:55;;;;;;;2.80;0.80;;;;;;;;;;1861985;77;21066;-64
2022/09/25 06:25:25;;;;;;;3.65;0.90;;;;;;;;;;1861744;77;21603;-63
2022/09/25 06:27:53;;;;;;;2.17;0.82;;;;;;;;;;1884765;75;21078;-63
2022/09/25 06:30:21;;;;;;;4.58;0.90;;;;;;;;;;1898199;75;21037;-63
2022/09/25 06:32:49;;;;;;;2.60;1.00;;;;;;;;;;1898113;75;21109;-63
2022/09/25 06:35:20;;;;;;;1.25;0.88;;;;;;;;;;1898136;75;21033;-62
2022/09/25 06:37:47;;;;;;;5.03;1.20;;;;;;;;;;1898125;75;21103;-63
2022/09/25 06:40:15;;;;;;;1.92;1.12;;;;;;;;;;1898030;75;21035;-62
2022/09/25 06:42:44;;;;;;;3.20;0.90;;;;;;;;;;1898266;75;21103;-62
2022/09/25 06:45:11;;;;;;;0.75;0.75;;;;;;;;;;1898079;75;21052;-62
2022/09/25 06:47:40;;;;;;;2.12;1.32;;;;;;;;;;1898207;75;21084;-62
2022/09/25 06:50:08;;;;;;;3.08;1.30;;;;;;;;;;1898121;75;21107;-63
2022/09/25 06:52:37;;;;;;;1.65;0.93;;;;;;;;;;1898032;75;21041;-63
2022/09/25 06:55:06;;;;;;;1.98;1.00;;;;;;;;;;1897738;75;21065;-63
2022/09/25 06:57:36;;;;;;;2.58;1.10;;;;;;;;;;1898107;75;21143;-63
2022/09/25 07:00:04;;;;;;;1.02;0.75;;;;;;;;;;1898056;75;21069;-64
2022/09/25 07:05:21;;;;;;;2.33;0.88;;;;;;;;;;1897977;74;21594;-63
2022/09/25 07:07:47;;;;;;;1.40;0.90;;;;;;;;;;1896710;74;21045;-63
2022/09/25 07:10:15;;;;;;;1.65;0.90;;;;;;;;;;1898078;75;21151;-63
2022/09/25 07:12:44;;;;;;;3.08;0.80;;;;;;;;;;1898007;74;21101;-63
2022/09/25 07:15:12;;;;;;;1.72;0.90;;;;;;;;;;1898073;75;21046;-62
2022/09/25 07:17:44;;;;;;;0.75;0.72;;;;;;;;;;1897897;75;21022;-63
2022/09/25 07:20:14;;;;;;;1.55;0.98;;;;;;;;;;1898210;75;21115;-63
2022/09/25 07:22:41;;;;;;;1.62;0.98;;;;;;;;;;1898213;75;21558;-64
2022/09/25 07:25:11;;;;;;;1.57;0.85;;;;;;;;;;1898098;75;21089;-62
2022/09/25 07:27:39;;;;;;;1.90;0.90;;;;;;;;;;1886038;75;21187;-63
2022/09/25 07:30:11;;;;;;;1.40;0.70;;;;;;;;;;1861861;76;21154;-63
2022/09/25 07:32:39;;;;;;;3.60;0.90;;;;;;;;;;1862057;77;21117;-63
2022/09/25 07:35:07;;;;;;;1.07;0.90;;;;;;;;;;1861938;76;21065;-63
2022/09/25 07:37:36;;;;;;;1.80;0.80;;;;;;;;;;1862468;75;21173;-62
2022/09/25 07:40:04;;;;;;;2.35;0.93;;;;;;;;;;1862084;75;21156;-64
2022/09/25 07:42:35;;;;;;;1.50;0.90;;;;;;;;;;1861908;77;21058;-63
2022/09/25 07:45:01;;;;;;;2.85;0.90;;;;;;;;;;1861964;76;21133;-62
2022/09/25 07:47:34;;;;;;;2.50;0.90;;;;;;;;;;1861889;77;21132;-63
2022/09/25 07:50:01;;;;;;;1.85;1.42;;;;;;;;;;1866151;75;21025;-68
2022/09/25 07:52:30;;;;;;;2.50;1.17;;;;;;;;;;1901297;75;21785;-66
2022/09/25 07:54:58;;;;;;;2.40;1.72;;;;;;;;;;1903041;74;21093;-64
2022/09/25 07:57:26;;;;;;;1.15;1.00;;;;;;;;;;1894599;75;21113;-64
2022/09/25 07:59:55;;;;;;;2.50;1.17;;;;;;;;;;1892060;75;21142;-65
2022/09/25 08:02:23;;;;;;;1.55;0.90;;;;;;;;;;1893613;74;21058;-65
2022/09/25 08:04:52;;;;;;;2.65;1.17;;;;;;;;;;1893742;76;21050;-65
2022/09/25 08:07:20;;;;;;;4.05;0.70;;;;;;;;;;1893751;76;21124;-65
2022/09/25 08:09:47;;;;;;;1.50;1.05;;;;;;;;;;1861925;76;21087;-65
2022/09/25 08:12:14;;;;;;;1.17;0.80;;;;;;;;;;1860702;77;21108;-65
2022/09/25 08:14:42;;;;;;;1.85;1.00;;;;;;;;;;1860736;77;21014;-66
2022/09/25 08:17:09;;;;;;;1.75;0.95;;;;;;;;;;1860746;77;21057;-65
2022/09/25 08:19:37;;;;;;;1.62;0.85;;;;;;;;;;1860722;77;21037;-64
2022/09/25 08:22:07;;;;;;;2.05;0.90;;;;;;;;;;1860740;77;21099;-64
2022/09/25 08:24:36;;;;;;;0.75;0.70;;;;;;;;;;1860672;77;21099;-64
2022/09/25 08:27:06;;;;;;;1.77;0.80;;;;;;;;;;1860686;77;21013;-64
2022/09/25 08:29:34;;;;;;;2.30;0.98;;;;;;;;;;1890202;76;21074;-64
2022/09/25 08:32:01;;;;;;;1.07;0.95;;;;;;;;;;1894030;76;21120;-64
2022/09/25 08:34:30;;;;;;;1.15;0.70;;;;;;;;;;1893902;76;21183;-64
2022/09/25 08:36:58;;;;;;;1.45;0.82;;;;;;;;;;1893989;76;21550;-63
2022/09/25 08:39:25;;;;;;;2.72;0.80;;;;;;;;;;1893980;76;21131;-64
2022/09/25 08:42:02;;;;;;;1.50;0.70;;;;;;;;;;1894017;75;21046;-66
2022/09/25 08:44:38;;;;;;;2.45;0.80;;;;;;;;;;1894353;74;21063;-63
2022/09/25 08:49:57;;;;;;;3.02;1.00;;;;;;;;;;1934688;74;21120;-64
2022/09/25 08:52:26;;;;;;;1.35;0.65;;;;;;;;;;1931037;73;21082;-63
2022/09/25 08:54:55;;;;;;;1.47;0.60;;;;;;;;;;1931416;74;21057;-68
2022/09/25 08:57:39;;;;;;;1.72;0.80;;;;;;;;;;1931194;74;21022;-71
2022/09/25 09:00:08;;;;;;;2.77;0.60;;;;;;;;;;1931576;74;21106;-70
2022/09/25 09:02:38;;;;;;;1.02;0.70;;;;;;;;;;1931405;74;21030;-69
2022/09/25 09:05:07;;;;;;;0.70;0.62;;;;;;;;;;1897424;75;21073;-68
2022/09/25 09:07:41;;;;;;;4.83;0.80;;;;;;;;;;1898022;75;21580;-69
2022/09/25 09:10:23;;;;;;;0.95;0.72;;;;;;;;;;1896924;75;21154;-69
2022/09/25 10:04:08;;;;;;;1.25;0.70;;;;;;;27.59;25.87;101773.73;1958801;73;25758;-63
2022/09/25 10:06:36;;;;;;;1.52;0.60;;;;;;;26.67;26.18;101779.59;1916982;74;21514;-63
2022/09/25 10:09:08;;;;;;;0.88;0.70;;;;;;;25.90;26.50;101764.84;1917507;74;21201;-63
2022/09/25 10:11:38;;;;;;;0.98;0.75;;;;;;;25.39;27.95;101775.47;1918145;75;21116;-63
2022/09/25 10:14:10;;;;;;;0.80;0.60;;;;;;;26.16;28.23;101783.64;1918092;75;21114;-63
2022/09/25 10:16:43;;;;;;;1.57;0.90;;;;;;;26.63;27.59;101770.92;1918185;74;21110;-63
2022/09/25 10:19:38;;;;;;;2.80;0.80;;;;;;;26.60;27.06;101771.22;1916928;74;21200;-63
2022/09/25 10:22:21;;;;;;;1.52;0.90;;;;;;;25.88;27.25;101769.52;1910019;74;21105;-62
2022/09/25 10:25:02;;;;;;;1.60;0.70;;;;;;;25.12;28.88;101767.02;1916267;74;21161;-63
2022/09/25 10:27:47;;;;;;;1.37;0.70;;;;;;;24.38;29.74;101767.72;1918174;75;21423;-63
2022/09/25 10:30:19;;;;;;;0.80;0.60;;;;;;;23.57;30.86;101761.58;1918253;75;21032;-63
2022/09/25 10:33:03;;;;;;;3.83;0.80;;;;;;;22.85;31.88;101766.56;1918338;75;21044;-64
2022/09/25 10:35:44;;;;;;;2.12;1.00;;;;;;;22.32;32.41;101765.06;1891513;74;21495;-64
2022/09/25 10:38:48;;;;;;;3.67;0.80;;;;;;;22.14;33.10;101772.56;1918202;75;21059;-63
2022/09/25 10:41:19;;;;;;;1.10;0.75;;;;;;;22.89;33.09;101765.39;1918413;75;21090;-63
2022/09/25 10:43:53;;;;;;;2.83;0.90;;;;;;;24.37;32.35;101764.18;1918192;75;21085;-64
2022/09/25 10:52:09;;;;;;;2.90;0.70;;;;;;;25.05;30.48;101752.73;1918084;74;21020;-63
2022/09/25 10:54:38;;;;;;;0.85;0.70;;;;;;;24.46;30.92;101747.77;1918183;75;21102;-64
2022/09/25 10:57:19;;;;;;;4.28;0.68;;;;;;;23.79;31.83;101754.94;1918301;75;21037;-63
2022/09/25 10:59:53;;;;;;;2.60;0.90;;;;;;;23.53;32.08;101748.02;1918299;75;21539;-64
2022/09/25 11:02:31;;;;;;;0.62;0.62;;;;;;;23.87;31.83;101756.52;1916438;74;21206;-63
2022/09/25 11:05:00;;;;;;;1.57;0.60;;;;;;;23.99;29.29;101746.59;1905711;74;21115;-63
2022/09/25 11:07:32;;;;;;;0.88;0.72;;;;;;;23.93;29.53;101740.88;1905744;75;21020;-64
2022/09/25 11:10:00;;;;;;;1.92;0.95;;;;;;;23.95;29.77;101759.08;1905757;75;21056;-64
2022/09/25 11:12:30;;;;;;;3.52;1.20;;;;;;;24.20;30.62;101760.17;1905921;75;21165;-63
2022/09/25 11:15:04;;;;;;;3.25;1.30;;;;;;;24.49;31.16;101769.03;1905223;75;21483;-64
2022/09/25 11:17:41;;;;;;;1.62;0.80;;;;;;;24.64;31.43;101761.56;1905185;75;21024;-64
2022/09/25 11:20:19;;;;;;;1.22;0.95;;;;;;;24.64;31.63;101771.87;1905346;75;21028;-64
2022/09/25 11:23:10;;;;;;;1.40;0.80;;;;;;;24.07;31.97;101764.34;1905102;75;21028;-64
2022/09/25 11:26:01;;;;;;;1.20;1.00;;;;;;;23.76;32.67;101770.42;1905000;75;21052;-64
2022/09/25 11:28:48;;;;;;;1.12;0.82;;;;;;;23.21;33.34;101779.09;1905051;74;21474;-65
2022/09/25 11:31:43;;;;;;;2.77;1.00;;;;;;;22.67;34.07;101784.43;1904017;74;21557;-63
2022/09/25 11:34:35;;;;;;;0.95;0.50;;;;;;;22.41;34.66;101781.44;1904638;74;21032;-64
2022/09/25 11:37:08;;;;;;;0.93;0.70;;;;;;;22.42;35.15;101777.31;1906004;74;21514;-63
2022/09/25 11:42:32;;;;;;;1.40;1.00;;;;;;;22.23;35.32;101784.96;1872682;77;21099;-65
2022/09/25 11:45:19;;;;;;;2.00;0.90;;;;;;;22.24;35.69;101786.17;1872414;76;21151;-64
2022/09/25 11:47:53;;;;;;;1.55;0.62;;;;;;;22.10;36.03;101783.64;1872499;76;21142;-65
2022/09/25 11:50:26;;;;;;;2.58;0.90;;;;;;;21.76;36.48;101786.00;1872300;76;21044;-64
2022/09/25 11:53:13;;;;;;;2.33;0.80;;;;;;;21.61;36.76;101789.76;1873450;76;21189;-64
2022/09/25 11:55:49;;;;;;;1.02;0.90;;;;;;;21.55;36.73;101785.69;1872241;76;21110;-63
2022/09/25 11:58:30;;;;;;;1.42;1.00;;;;;;;21.46;36.57;101776.94;1872459;76;21032;-65
2022/09/25 12:01:25;;;;;;;3.40;1.05;;;;;;;21.27;36.86;101784.86;1872513;77;21146;-64
2022/09/25 12:03:59;;;;;;;1.87;0.85;;;;;;;21.03;37.17;101783.84;1872618;76;21612;-63
2022/09/25 12:06:52;;;;;;;2.33;1.17;;;;;;;20.73;37.69;101787.10;1872725;76;21540;-63
2022/09/25 12:09:32;;;;;;;1.73;1.00;;;;;;;20.62;37.94;101790.96;1872604;76;21036;-64
2022/09/25 12:12:13;;;;;;;3.30;1.70;;;;;;;20.66;38.13;101785.78;1872571;76;21031;-63
2022/09/25 12:14:47;;;;;;;2.80;1.15;;;;;;;20.81;38.22;101783.92;1872557;77;21040;-63
2022/09/25 12:17:41;;;;;;;1.90;1.00;;;;;;;21.02;38.38;101780.28;1872768;76;21064;-63
2022/09/25 12:20:42;;;;;;;1.72;0.82;;;;;;;21.01;38.41;101783.45;1872652;77;21118;-63
2022/09/25 12:23:16;;;;;;;1.52;1.02;;;;;;;21.03;38.42;101785.19;1872735;77;21122;-63
2022/09/25 12:26:13;;;;;;;2.47;1.07;;;;;;;21.02;38.40;101785.64;1872732;75;21135;-63
2022/09/25 12:28:54;;;;;;;2.58;0.70;;;;;;;21.06;38.46;101784.47;1869784;77;21547;-63
2022/09/25 12:31:42;;;;;;;1.20;0.85;;;;;;;20.88;38.11;101786.57;1872900;76;21047;-62
2022/09/25 12:34:22;;;;;;;1.10;0.90;;;;;;;20.59;38.26;101792.45;1872655;77;21032;-64
2022/09/25 12:36:53;;;;;;;1.62;0.90;;;;;;;20.40;38.89;101797.65;1872810;76;21122;-63
2022/09/25 12:39:36;;;;;;;1.72;0.95;;;;;;;20.15;39.22;101802.83;1872785;76;21568;-62
2022/09/25 12:42:15;;;;;;;1.30;0.85;;;;;;;19.95;39.54;101796.89;1872774;77;21176;-62
2022/09/25 12:44:46;;;;;;;2.05;1.00;;;;;;;19.83;39.81;101797.67;1872650;77;21060;-62
2022/09/25 12:47:32;;;;;;;0.62;0.62;;;;;;;19.82;39.81;101798.12;1872625;76;21608;-63
2022/09/25 12:50:16;;;;;;;3.87;1.15;;;;;;;19.79;39.74;101788.09;1853217;76;21196;-62
2022/09/25 12:52:48;;;;;;;0.80;0.70;;;;;;;19.59;39.86;101798.66;1872618;77;21079;-62
2022/09/25 12:55:22;;;;;;;4.17;1.40;;;;;;;19.55;40.24;101806.45;1872837;75;21035;-62
2022/09/25 12:58:20;;;;;;;2.98;1.50;;;;;;;19.60;40.45;101799.87;1840819;78;21127;-62
2022/09/25 13:00:51;;;;;;;5.15;1.40;;;;;;;19.73;40.53;101788.48;1840759;78;21105;-62
2022/09/25 13:03:25;;;;;;;1.50;1.20;;;;;;;19.75;40.58;101791.92;1841354;76;21476;-62
2022/09/25 13:06:00;;;;;;;2.47;1.32;;;;;;;19.66;40.56;101790.17;1829880;78;21046;-63
2022/09/25 13:08:40;;;;;;;3.05;1.25;;;;;;;19.64;40.91;101794.75;1841750;76;21199;-62
2022/09/25 13:11:12;;;;;;;1.12;0.90;;;;;;;19.60;41.03;101788.34;1841519;76;21500;-63
2022/09/25 13:13:46;;;;;;;1.70;1.15;;;;;;;19.54;40.98;101791.39;1840735;76;21091;-62
2022/09/25 13:16:16;;;;;;;2.20;1.10;;;;;;;19.48;41.25;101792.63;1840724;78;21171;-62
2022/09/25 13:19:14;;;;;;;2.37;1.10;;;;;;;19.41;41.21;101796.61;1840977;78;21073;-62
2022/09/25 13:21:43;;;;;;;1.00;0.90;;;;;;;19.32;41.23;101794.48;1842535;76;21070;-62
2022/09/25 13:24:16;;;;;;;2.00;1.22;;;;;;;19.19;41.35;101788.52;1840695;78;21527;-63
2022/09/25 13:26:48;;;;;;;1.37;1.12;;;;;;;19.12;41.38;101784.48;1822811;78;21527;-62
2022/09/25 13:29:34;;;;;;;2.98;1.07;;;;;;;19.08;41.55;101794.96;1839206;76;21057;-62
2022/09/25 13:32:21;;;;;;;1.37;0.90;;;;;;;19.04;41.59;101796.95;1854280;77;21100;-63
2022/09/25 13:35:00;;;;;;;2.00;1.00;;;;;;;18.99;42.00;101803.50;1871826;77;21010;-63
2022/09/25 13:37:39;;;;;;;1.72;1.10;;;;;;;18.99;42.25;101803.50;1871829;75;21112;-64
2022/09/25 13:43:27;;;;;;;1.67;1.10;;;;;;;18.83;42.23;101795.05;1871794;75;21027;-63
2022/09/25 13:46:22;;;;;;;1.77;1.42;;;;;;;18.76;42.52;101791.43;1810637;79;21061;-63
2022/09/25 13:48:54;;;;;;;2.30;1.20;;;;;;;18.67;42.73;101788.84;1809976;78;21135;-62
2022/09/25 13:51:26;;;;;;;2.70;1.32;;;;;;;18.60;43.04;101799.45;1810333;79;21314;-63
2022/09/25 13:53:59;;;;;;;1.92;1.00;;;;;;;18.56;43.22;101795.25;1810393;79;21054;-63
2022/09/25 13:56:39;;;;;;;3.30;1.00;;;;;;;18.45;43.39;101788.70;1811941;78;21239;-63
2022/09/25 13:59:18;;;;;;;1.50;1.10;;;;;;;18.40;43.50;101780.56;1820216;79;21105;-63
2022/09/25 14:01:49;;;;;;;3.00;1.17;;;;;;;18.36;43.36;101783.02;1821223;79;21041;-66
2022/09/25 14:04:34;;;;;;;3.65;1.55;;;;;;;18.29;43.17;101778.48;1821737;78;21046;-67
2022/09/25 14:07:12;;;;;;;2.60;1.07;;;;;;;18.22;43.46;101783.31;1821872;77;21021;-67
2022/09/25 14:09:46;;;;;;;3.37;1.00;;;;;;;18.19;43.55;101786.13;1817417;77;21073;-66
2022/09/25 14:12:20;;;;;;;1.47;1.00;;;;;;;18.14;43.68;101791.70;1822104;78;21100;-67
2022/09/25 14:15:06;;;;;;;1.45;1.10;;;;;;;18.09;43.96;101800.44;1821849;77;21053;-67
2022/09/25 14:17:34;;;;;;;2.30;1.20;;;;;;;18.06;44.02;101797.93;1759746;81;21101;-66
2022/09/25 14:20:06;;;;;;;1.92;1.20;;;;;;;18.00;44.25;101797.39;1831350;76;20986;-63
2022/09/25 14:22:45;;;;;;;1.07;0.90;;;;;;;17.93;44.35;101798.20;1883607;76;21057;-63
2022/09/25 14:25:26;;;;;;;1.12;1.02;;;;;;;17.86;44.40;101790.14;1883378;76;21042;-64
2022/09/25 14:27:55;;;;;;;1.22;0.90;;;;;;;17.80;44.45;101791.30;1882933;76;21070;-62
2022/09/25 14:30:27;;;;;;;3.30;1.05;;;;;;;17.74;44.46;101785.83;1884222;76;21042;-63
2022/09/25 14:33:30;;;;;;;2.75;1.30;;;;;;;17.68;44.49;101790.13;1883498;76;21010;-63
2022/09/25 14:36:04;;;;;;;1.50;1.00;;;;;;;17.60;44.87;101789.67;1883962;76;21468;-63
2022/09/25 14:38:45;;;;;;;2.87;1.10;;;;;;;17.53;45.00;101791.78;1883968;76;21418;-63
2022/09/25 14:41:25;;;;;;;1.50;1.02;;;;;;;17.47;45.08;101797.44;1883183;76;21122;-63
2022/09/25 14:44:08;;;;;;;1.80;1.40;;;;;;;17.40;45.38;101801.34;1883978;76;21007;-63
2022/09/25 14:46:36;;;;;;;2.08;1.35;;;;;;;17.31;45.58;101802.66;1883318;76;20995;-63
2022/09/25 14:49:26;;;;;;;2.15;1.12;;;;;;;17.25;45.65;101806.98;1884056;76;21006;-63
2022/09/25 14:52:03;;;;;;;1.67;1.05;;;;;;;17.17;45.80;101800.71;1883959;76;21026;-63
2022/09/25 14:54:36;;;;;;;2.52;1.12;;;;;;;17.09;46.03;101798.03;1884125;76;21066;-63
2022/09/25 14:57:07;;;;;;;1.98;1.30;;;;;;;17.02;46.11;101801.93;1882347;75;21212;-63
2022/09/25 14:59:48;;;;;;;2.98;1.60;;;;;;;16.92;46.56;101797.06;1871844;77;21490;-62
2022/09/25 15:02:21;;;;;;;2.02;1.50;;;;;;;16.82;47.10;101799.77;1825633;77;21046;-64
2022/09/25 15:04:51;;;;;;;2.62;1.47;;;;;;;16.75;47.23;101811.62;1810498;79;21169;-63
2022/09/25 15:07:25;;;;;;;5.30;2.35;;;;;;;16.68;47.22;101815.52;1835388;77;21148;-65
2022/09/25 15:09:58;;;;;;;4.33;1.50;;;;;;;16.60;47.29;101807.91;1871943;75;21527;-66